METAR AND TAF INFORMATION
METAR FOR LOWL
ADDS - METARS form results

(1106 UTC 16 April 2021)
Data provider http://aviationweather.gov/metar/data/
 
METAR text: LOWL 161050Z 27007KT 230V310 9999 SCT040 BKN070 06/M02 Q1022 NOSIG
Conditions at: LOWL (LINZ (CIV/MIL) , AT) observed 1050 UTC 16 April 2021
Temperature: 6.0°C (43°F)
Dewpoint: -2.0°C (28°F) [RH = 56%]
Pressure (altimeter): 30.18 inches Hg (1022.0 mb)
Winds: from the W (270 degrees) at 8 MPH (7 knots; 3.6 m/s)
Visibility: 6 or more miles (10+ km)
Ceiling: 7000 feet AGL
Clouds: scattered clouds at 4000 feet AGL
broken clouds at 7000 feet AGL
Weather: no significant weather observed at this time

METAR text: LOWL 161020Z 27006KT 230V320 9999 FEW035 BKN042 BKN070 06/M03 Q1023 NOSIG
Conditions at: LOWL (LINZ (CIV/MIL) , AT) observed 1020 UTC 16 April 2021
Temperature: 6.0°C (43°F)
Dewpoint: -3.0°C (27°F) [RH = 52%]
Pressure (altimeter): 30.21 inches Hg (1023.0 mb)
Winds: from the W (270 degrees) at 7 MPH (6 knots; 3.1 m/s)
Visibility: 6 or more miles (10+ km)
Ceiling: 4200 feet AGL
Clouds: few clouds at 3500 feet AGL
broken clouds at 4200 feet AGL
broken clouds at 7000 feet AGL
Weather: no significant weather observed at this time

Forecast for: LOWL (LINZ (CIV/MIL) , AT)
Text: TAF LOWL 160515Z 1606/1706 27005KT 9999 BKN050 TX07/1614Z TN00/1606Z
Forecast period: 0600 UTC 16 April 2021 to 0600 UTC 17 April 2021
Forecast type: FROM: standard forecast or significant change
Winds: from the W (270 degrees) at 6 MPH (5 knots; 2.6 m/s)
Visibility: 6 or more miles (10+ km)
Ceiling: 5000 feet AGL
Clouds: broken clouds at 5000 feet AGL
Weather: no significant weather forecast for this period

 AIRPORT MAP

 RUNWAY INFORMATION
Runway 09 Runway length 9843 ft Runway width 197 ft
Runway elevation 978 ft Runway displaced threshold 821 ft Runway heading 87
Runway 27 Runway length 9843 ft Runway width 197 ft
Runway elevation 963 ft Runway displaced threshold 493 ft Runway heading 267
Runway 09L Runway length 2165 ft Runway width 148 ft
Runway elevation 971 ft Runway displaced threshold 0 ft Runway heading 87
Runway 27R Runway length 2165 ft Runway width 148 ft
Runway elevation 968 ft Runway displaced threshold 0 ft Runway heading 267

 AIRPORT FREQUENCIES
Type APP Name RADAR Frequency 129.625 MHZ
Type ATIS Name ATIS Frequency 128.125 MHZ
Type TWR Name TWR Frequency 118.8 MHZ

 AIRPORT NEAR NAVIGATION AIDS



Powered by Virtual Airlines Manager [v2.6.2]

Impressum | Datenschutz